Capitol Logistics 1886

Operating for CJT



CYYC
Calgary International Airport
Calgary, CA
CYHM
John C. Munro Hamilton International Airport
Hamilton, CA

Activity Log

Date Flight Route Aircraft Duration
No Flights Yet

Route Details

Aircraft Information
Group: Equipment Varies
Types: A30F,A31F,B738,B744,B752,B762,B763,MD11
Route Data
Demand: V
Distance: 1457nm
Duration: 3h 22m
Recm'd Route: LOMLO Q961 DAPOP VLN J500 VLR J500 YQT SSM MUSIT TETOS AVSOX AVSOX2
Origin Wx: CYYC 270500Z VRB02KT 15SM FEW260 15/M01 A2977 RMK CI2 SLP084 DENSITY ALT 4700FT
Dest. Wx: CYHM 270500Z 21008KT 15SM -RA FEW015 BKN022 OVC034 19/18 A2980 RMK CF1SC5SC2 SLP092 DENSITY ALT 1600FT
Notes:

Financial History
Total Freight: 0lbs
Average Load: 0lbs/flt
Fuel Used: 0lbs
Avg. Fuel Used: 0lbs/flt
Fuel Expense: $0
Avg. Fuel Expense: $0
Avg. Fuel Cost: $0/lbs
Total Gross Income: $0
Pilot Pay: $0
Total Expenses: $0
Total Revenue: $0
Average Revenue: $0